Time;durP1;ratioP1;P1;durP2;ratioP2;P2;SDS_P1;SDS_P2;PMS_P1;PMS_P2;Temp;Humidity;BMP_temperature;BMP_pressure;BME280_temperature;BME280_humidity;BME280_pressure;Samples;Min_cycle;Max_cycle;Signal;HPM_P1;HPM_P2
2023/12/30 00:02:07;;;;;;;39.80;30.92;;;14.30;1.00;;;;;;5040322;28;20080;-62
2023/12/30 00:04:33;;;;;;;40.88;30.25;;;14.10;19.10;;;;;;5044809;28;20036;-63
2023/12/30 00:06:58;;;;;;;35.08;29.95;;;14.20;28.00;;;;;;5047946;28;20044;-63
2023/12/30 00:09:24;;;;;;;40.35;30.98;;;14.40;1.00;;;;;;5045030;28;20135;-63
2023/12/30 00:11:49;;;;;;;39.72;31.42;;;14.50;1.00;;;;;;5049084;28;20130;-62
2023/12/30 00:14:15;;;;;;;38.97;29.88;;;14.30;1.00;;;;;;5047654;28;20049;-62
2023/12/30 00:16:41;;;;;;;35.35;29.08;;;13.60;1.00;;;;;;5045670;28;20502;-63
2023/12/30 00:19:08;;;;;;;41.67;27.45;;;13.70;1.00;;;;;;5033980;28;20041;-63
2023/12/30 00:21:34;;;;;;;36.13;28.77;;;13.60;1.00;;;;;;5046028;28;20176;-62
2023/12/30 00:23:59;;;;;;;39.38;30.75;;;13.80;1.00;;;;;;5041081;28;20152;-62
2023/12/30 00:26:26;;;;;;;41.15;29.80;;;13.40;1.00;;;;;;5034836;28;20087;-63
2023/12/30 00:28:54;;;;;;;43.05;30.00;;;13.70;99.90;;;;;;5048549;28;20029;-63
2023/12/30 00:31:27;;;;;;;32.25;25.48;;;13.90;99.90;;;;;;5049200;28;20398;-63
2023/12/30 00:33:56;;;;;;;41.33;28.00;;;13.90;99.90;;;;;;5045432;28;20122;-63
2023/12/30 00:36:21;;;;;;;38.42;29.58;;;13.80;99.90;;;;;;5034300;28;20132;-62
2023/12/30 00:38:47;;;;;;;39.40;28.52;;;14.40;89.40;;;;;;5036682;28;20033;-64
2023/12/30 00:41:13;;;;;;;38.38;28.58;;;13.60;1.00;;;;;;5047047;28;20479;-62
2023/12/30 00:43:42;;;;;;;41.67;28.75;;;13.50;1.00;;;;;;5040019;28;20641;-62
2023/12/30 00:46:09;;;;;;;41.13;28.42;;;13.60;99.90;;;;;;5047461;28;20045;-63
2023/12/30 00:48:35;;;;;;;44.90;28.70;;;13.80;99.90;;;;;;5048148;28;20037;-62
2023/12/30 00:51:01;;;;;;;38.83;27.98;;;14.30;99.90;;;;;;5048683;28;20120;-63
2023/12/30 00:53:27;;;;;;;45.20;29.00;;;13.70;99.90;;;;;;5039852;28;20044;-63
2023/12/30 00:55:54;;;;;;;39.83;29.58;;;14.50;99.90;;;;;;5045588;28;20076;-63
2023/12/30 00:58:20;;;;;;;40.70;29.05;;;13.50;99.90;;;;;;5039440;28;20447;-63
2023/12/30 01:00:46;;;;;;;45.15;30.55;;;14.40;22.10;;;;;;5030778;28;20137;-62
2023/12/30 01:03:11;;;;;;;39.65;29.55;;;13.50;53.80;;;;;;5036007;28;20531;-63
2023/12/30 01:05:37;;;;;;;45.03;28.95;;;13.50;60.10;;;;;;5044988;28;20045;-62
2023/12/30 01:08:03;;;;;;;37.30;29.35;;;15.30;5.40;;;;;;5045809;28;20051;-62
2023/12/30 01:10:29;;;;;;;34.40;28.02;;;14.30;1.00;;;;;;5044820;28;20050;-63
2023/12/30 01:12:54;;;;;;;37.20;28.27;;;14.50;1.00;;;;;;5031811;28;20045;-63
2023/12/30 01:15:20;;;;;;;36.08;28.50;;;14.50;1.00;;;;;;5044725;28;20045;-63
2023/12/30 01:17:45;;;;;;;37.92;27.45;;;14.50;99.90;;;;;;5045983;28;20040;-63
2023/12/30 01:20:11;;;;;;;31.50;26.15;;;14.40;99.90;;;;;;5029605;28;20123;-63
2023/12/30 01:22:37;;;;;;;39.92;28.38;;;13.80;99.90;;;;;;5036757;28;20568;-62
2023/12/30 01:25:03;;;;;;;43.33;28.60;;;14.20;99.90;;;;;;5032046;28;20041;-63
2023/12/30 01:27:28;;;;;;;41.88;28.63;;;14.20;99.90;;;;;;5031691;28;20041;-63
2023/12/30 01:29:54;;;;;;;43.90;30.00;;;13.80;99.90;;;;;;5044281;28;20118;-63
2023/12/30 01:32:19;;;;;;;50.15;30.27;;;14.30;99.90;;;;;;5042510;28;20041;-63
2023/12/30 01:34:45;;;;;;;41.65;32.00;;;14.40;99.90;;;;;;5046665;28;20041;-64
2023/12/30 01:37:10;;;;;;;43.00;32.40;;;13.80;99.90;;;;;;5045453;28;20083;-63
2023/12/30 01:39:36;;;;;;;39.67;29.27;;;13.70;99.90;;;;;;5026919;28;20052;-63
2023/12/30 01:42:01;;;;;;;39.95;29.85;;;13.50;99.90;;;;;;5038388;28;20057;-64
2023/12/30 01:44:27;;;;;;;38.80;27.88;;;14.20;99.90;;;;;;5031107;28;20525;-62
2023/12/30 01:46:53;;;;;;;39.95;28.33;;;13.80;99.90;;;;;;5037421;28;20040;-63
2023/12/30 01:49:19;;;;;;;36.53;29.08;;;14.50;99.90;;;;;;5046344;28;20037;-62
2023/12/30 01:51:46;;;;;;;39.28;30.13;;;13.70;1.00;;;;;;5046261;28;20083;-64
2023/12/30 01:54:13;;;;;;;37.20;27.15;;;14.40;99.90;;;;;;5036092;28;20052;-63
2023/12/30 01:56:39;;;;;;;39.75;25.38;;;14.50;99.90;;;;;;5026333;28;20403;-62
2023/12/30 01:59:05;;;;;;;39.00;29.08;;;13.60;99.90;;;;;;5032177;28;20614;-63
2023/12/30 02:01:30;;;;;;;40.47;28.77;;;14.40;99.90;;;;;;5034389;28;20100;-62
2023/12/30 02:03:56;;;;;;;40.38;29.50;;;13.90;99.90;;;;;;5038820;28;20219;-63
2023/12/30 02:06:21;;;;;;;37.30;27.02;;;13.60;99.90;;;;;;5046459;28;20098;-62
2023/12/30 02:08:48;;;;;;;43.00;28.90;;;14.70;99.90;;;;;;5042406;28;20041;-63
2023/12/30 02:11:15;;;;;;;41.85;28.63;;;13.70;99.90;;;;;;5032899;28;20573;-63
2023/12/30 02:13:44;;;;;;;41.40;28.05;;;14.50;99.90;;;;;;5040214;28;20045;-62
2023/12/30 02:16:11;;;;;;;38.85;27.83;;;13.90;99.90;;;;;;5047264;28;20051;-63
2023/12/30 02:18:38;;;;;;;38.58;27.30;;;13.60;99.90;;;;;;5041648;28;20095;-63
2023/12/30 02:21:04;;;;;;;37.67;26.90;;;13.50;99.90;;;;;;5028296;28;20094;-62
2023/12/30 02:23:29;;;;;;;38.22;26.63;;;14.30;99.90;;;;;;5045281;28;20029;-62
2023/12/30 02:25:55;;;;;;;37.25;26.70;;;14.30;99.90;;;;;;5042704;28;20037;-63
2023/12/30 02:28:20;;;;;;;40.53;27.95;;;13.70;99.90;;;;;;5046152;28;20048;-62
2023/12/30 02:30:46;;;;;;;42.90;29.13;;;14.40;99.90;;;;;;5042576;28;20045;-62
2023/12/30 02:33:11;;;;;;;39.03;28.70;;;14.20;99.90;;;;;;5033440;28;20411;-63
2023/12/30 02:35:40;;;;;;;37.75;26.73;;;14.30;79.50;;;;;;5044765;28;20039;-63
2023/12/30 02:38:05;;;;;;;35.30;26.50;;;14.40;37.40;;;;;;5038107;28;20436;-62
2023/12/30 02:40:31;;;;;;;36.03;27.35;;;14.00;1.00;;;;;;5038682;28;20033;-63
2023/12/30 02:42:57;;;;;;;29.52;23.92;;;14.30;4.60;;;;;;5037062;28;20099;-63
2023/12/30 02:45:22;;;;;;;27.38;23.48;;;14.10;1.00;;;;;;5040048;28;20040;-63
2023/12/30 02:47:48;;;;;;;42.30;28.35;;;14.50;1.00;;;;;;5044453;28;20045;-64
2023/12/30 02:50:13;;;;;;;43.10;27.55;;;13.80;1.00;;;;;;5042260;28;20378;-63
2023/12/30 02:52:39;;;;;;;41.95;27.95;;;14.20;1.00;;;;;;5036212;28;20081;-63
2023/12/30 02:55:06;;;;;;;50.42;28.60;;;14.40;19.10;;;;;;5025005;28;20042;-63
2023/12/30 02:57:31;;;;;;;46.45;28.75;;;14.40;51.00;;;;;;5026038;28;20041;-64
2023/12/30 02:59:57;;;;;;;42.67;31.10;;;13.50;35.40;;;;;;5027698;28;20037;-63
2023/12/30 03:02:23;;;;;;;46.42;30.27;;;13.90;68.50;;;;;;5031734;28;20133;-63
2023/12/30 03:04:49;;;;;;;46.75;30.15;;;13.50;99.90;;;;;;5038388;28;20048;-63
2023/12/30 03:07:15;;;;;;;40.70;29.65;;;13.60;99.90;;;;;;5041217;28;20084;-63
2023/12/30 03:09:40;;;;;;;43.13;30.88;;;14.50;99.90;;;;;;5027093;28;20037;-62
2023/12/30 03:12:08;;;;;;;49.33;29.77;;;13.50;99.90;;;;;;5036373;28;20371;-62
2023/12/30 03:14:33;;;;;;;43.20;29.40;;;14.30;99.90;;;;;;5030672;28;20396;-62
2023/12/30 03:16:59;;;;;;;42.65;29.77;;;14.50;99.90;;;;;;5057827;28;20043;-62
2023/12/30 03:19:25;;;;;;;40.00;28.90;;;14.80;99.90;;;;;;5035254;28;20142;-63
2023/12/30 03:21:50;;;;;;;41.30;30.10;;;13.80;99.90;;;;;;5030441;28;20414;-63
2023/12/30 03:24:16;;;;;;;41.95;31.25;;;14.00;99.90;;;;;;5040092;28;20044;-64
2023/12/30 03:26:41;;;;;;;40.17;28.55;;;13.80;99.90;;;;;;5038728;28;20041;-63
2023/12/30 03:29:07;;;;;;;45.83;28.48;;;14.10;99.90;;;;;;5044585;28;20033;-62
2023/12/30 03:31:32;;;;;;;45.67;29.50;;;13.50;99.90;;;;;;5045018;28;20134;-63
2023/12/30 03:33:58;;;;;;;40.20;30.67;;;14.20;99.90;;;;;;5043386;28;20102;-62
2023/12/30 03:36:23;;;;;;;44.20;31.25;;;14.10;99.90;;;;;;5030342;28;20045;-63
2023/12/30 03:38:51;;;;;;;40.63;30.45;;;13.90;99.90;;;;;;5008284;28;20052;-63
2023/12/30 03:41:17;;;;;;;40.63;31.90;;;14.50;99.90;;;;;;5043417;28;20064;-62
2023/12/30 03:43:43;;;;;;;45.63;30.63;;;13.70;99.90;;;;;;5036265;28;20033;-62
2023/12/30 03:46:08;;;;;;;46.92;29.85;;;13.80;1.00;;;;;;5043751;28;20308;-62
2023/12/30 03:48:34;;;;;;;37.50;27.70;;;14.30;1.00;;;;;;5034178;28;20044;-63
2023/12/30 03:51:00;;;;;;;43.58;31.05;;;14.00;1.00;;;;;;5030410;28;20033;-63
2023/12/30 03:53:26;;;;;;;45.75;30.88;;;14.00;1.00;;;;;;5036805;28;20144;-62
2023/12/30 03:55:51;;;;;;;45.53;32.22;;;14.40;1.00;;;;;;5044337;28;20052;-63
2023/12/30 03:58:17;;;;;;;46.15;30.52;;;13.70;1.00;;;;;;5035122;28;20479;-62
2023/12/30 04:00:42;;;;;;;46.33;30.55;;;14.10;1.00;;;;;;5034255;28;20150;-62
2023/12/30 04:03:08;;;;;;;43.65;28.17;;;13.50;1.00;;;;;;5035292;28;20052;-63
2023/12/30 04:05:34;;;;;;;42.72;28.08;;;14.10;1.00;;;;;;5043944;28;20037;-62
2023/12/30 04:07:59;;;;;;;48.80;30.33;;;13.60;1.00;;;;;;5045372;28;20045;-63
2023/12/30 04:10:25;;;;;;;45.83;29.75;;;13.50;22.30;;;;;;5035918;28;20049;-62
2023/12/30 04:12:50;;;;;;;44.83;29.67;;;13.90;22.60;;;;;;5043134;28;20045;-63
2023/12/30 04:15:16;;;;;;;35.67;28.67;;;13.60;93.70;;;;;;5045666;28;20045;-64
2023/12/30 04:17:41;;;;;;;43.25;28.88;;;13.60;68.20;;;;;;5043675;28;20452;-63
2023/12/30 04:20:07;;;;;;;44.50;29.08;;;14.20;1.00;;;;;;5027561;28;20033;-62
2023/12/30 04:22:33;;;;;;;42.88;30.17;;;13.50;55.60;;;;;;5038257;28;20048;-64
2023/12/30 04:24:59;;;;;;;40.30;26.98;;;14.40;84.40;;;;;;5046538;28;20045;-64
2023/12/30 04:27:25;;;;;;;41.28;27.98;;;14.40;25.40;;;;;;5043546;28;20037;-62
2023/12/30 04:29:51;;;;;;;43.17;27.73;;;13.50;57.20;;;;;;5037698;28;20419;-63
2023/12/30 04:32:16;;;;;;;44.35;29.42;;;14.20;8.70;;;;;;5043994;28;20052;-63
2023/12/30 04:34:42;;;;;;;36.33;29.15;;;13.80;13.10;;;;;;5047040;28;20041;-62
2023/12/30 04:37:08;;;;;;;30.38;25.73;;;14.50;14.70;;;;;;5043671;28;20049;-62
2023/12/30 04:39:33;;;;;;;38.17;29.05;;;14.20;1.00;;;;;;5042075;28;20511;-63
2023/12/30 04:41:59;;;;;;;30.92;24.33;;;14.30;1.00;;;;;;5039070;28;20041;-63
2023/12/30 04:44:25;;;;;;;44.50;30.50;;;14.30;1.00;;;;;;5030581;28;20037;-63
2023/12/30 04:46:50;;;;;;;45.53;30.48;;;13.60;1.00;;;;;;5046384;28;20033;-62
2023/12/30 04:49:16;;;;;;;41.08;29.27;;;13.60;1.00;;;;;;5048694;28;20064;-63
2023/12/30 04:51:41;;;;;;;44.67;28.77;;;13.30;1.00;;;;;;5036004;28;20258;-62
2023/12/30 04:54:07;;;;;;;30.67;25.00;;;13.30;38.20;;;;;;5045608;28;20047;-63
2023/12/30 04:56:33;;;;;;;36.88;27.05;;;13.60;1.00;;;;;;5028981;28;20045;-63
2023/12/30 04:58:59;;;;;;;45.78;30.33;;;13.20;1.00;;;;;;5028704;28;20537;-64
2023/12/30 05:01:25;;;;;;;39.75;29.52;;;14.60;48.90;;;;;;5035372;28;20060;-63
2023/12/30 05:03:51;;;;;;;48.63;31.55;;;13.90;85.60;;;;;;5046965;28;20049;-63
2023/12/30 05:06:21;;;;;;;45.55;31.75;;;14.10;99.90;;;;;;5046634;28;20053;-63
2023/12/30 05:08:50;;;;;;;43.65;32.08;;;13.30;99.90;;;;;;5035847;28;20396;-62
2023/12/30 05:11:15;;;;;;;49.15;31.20;;;14.20;99.90;;;;;;5046235;28;20095;-63
2023/12/30 05:13:42;;;;;;;41.88;30.25;;;13.30;99.90;;;;;;5045985;28;20392;-63
2023/12/30 05:16:08;;;;;;;32.03;26.55;;;13.50;99.90;;;;;;5029892;28;20037;-63
2023/12/30 05:18:33;;;;;;;50.78;33.15;;;13.60;91.50;;;;;;5034238;28;20033;-63
2023/12/30 05:20:59;;;;;;;37.08;30.73;;;14.20;99.90;;;;;;5035157;28;20052;-64
2023/12/30 05:23:24;;;;;;;42.00;31.02;;;13.40;99.90;;;;;;5034026;28;20041;-64
2023/12/30 05:25:50;;;;;;;50.42;32.72;;;13.50;99.90;;;;;;5031628;28;20048;-64
2023/12/30 05:28:16;;;;;;;43.42;31.88;;;13.90;99.90;;;;;;5038340;28;20078;-64
2023/12/30 05:30:41;;;;;;;42.70;30.70;;;14.50;99.90;;;;;;5045973;28;20442;-63
2023/12/30 05:33:07;;;;;;;33.20;29.38;;;14.10;99.90;;;;;;5037852;28;20040;-63
2023/12/30 05:35:35;;;;;;;39.85;31.98;;;13.80;99.90;;;;;;5047269;28;20041;-63
2023/12/30 05:38:01;;;;;;;43.60;33.17;;;14.00;99.90;;;;;;5038065;28;20041;-62
2023/12/30 05:40:26;;;;;;;43.03;29.73;;;13.60;99.90;;;;;;5035680;28;20056;-64
2023/12/30 05:42:52;;;;;;;38.75;29.40;;;14.00;99.90;;;;;;5047181;28;20048;-63
2023/12/30 05:45:18;;;;;;;41.85;28.17;;;14.30;99.90;;;;;;5045589;28;20045;-63
2023/12/30 05:47:43;;;;;;;40.63;28.67;;;13.60;99.90;;;;;;5042601;28;20348;-62
2023/12/30 05:50:12;;;;;;;36.45;26.90;;;14.30;99.90;;;;;;5045725;28;20095;-62
2023/12/30 05:52:37;;;;;;;45.95;29.70;;;14.40;99.90;;;;;;5031537;28;20049;-62
2023/12/30 05:55:03;;;;;;;40.25;29.70;;;14.50;99.90;;;;;;5043190;28;20102;-62
2023/12/30 05:57:28;;;;;;;43.70;30.60;;;13.90;99.90;;;;;;5041793;28;20092;-63
2023/12/30 05:59:54;;;;;;;44.50;31.25;;;14.50;69.60;;;;;;5036549;28;20052;-63
2023/12/30 06:02:21;;;;;;;33.08;28.10;;;14.20;31.40;;;;;;5043680;28;20061;-63
2023/12/30 06:04:46;;;;;;;30.42;26.05;;;14.30;1.00;;;;;;5033102;28;20095;-63
2023/12/30 06:07:12;;;;;;;40.55;29.80;;;13.50;1.00;;;;;;5038761;28;20478;-63
2023/12/30 06:09:37;;;;;;;38.05;28.63;;;13.40;1.00;;;;;;5033718;28;20087;-63
2023/12/30 06:12:03;;;;;;;44.90;30.08;;;13.40;17.00;;;;;;5040720;28;20048;-63
2023/12/30 06:14:29;;;;;;;40.30;27.63;;;14.30;1.00;;;;;;5040157;28;20036;-62
2023/12/30 06:16:54;;;;;;;39.65;30.40;;;14.30;1.00;;;;;;5038108;28;20060;-62
2023/12/30 06:19:20;;;;;;;36.75;28.60;;;14.40;1.00;;;;;;5043489;28;20130;-63
2023/12/30 06:21:45;;;;;;;43.40;29.00;;;13.60;1.00;;;;;;5036063;28;20657;-63
2023/12/30 06:24:11;;;;;;;37.42;28.83;;;14.20;22.30;;;;;;5033792;28;20095;-64
2023/12/30 06:26:40;;;;;;;35.17;28.17;;;14.70;1.00;;;;;;5040791;28;20076;-63
2023/12/30 06:29:07;;;;;;;41.63;28.65;;;13.70;29.60;;;;;;5040820;28;20156;-63
2023/12/30 06:31:33;;;;;;;48.50;31.13;;;14.50;11.40;;;;;;5040186;28;20612;-63
2023/12/30 06:33:58;;;;;;;45.47;30.33;;;14.40;1.00;;;;;;5042641;28;20045;-63
2023/12/30 06:36:24;;;;;;;38.47;29.88;;;13.60;35.80;;;;;;5044888;28;20063;-62
2023/12/30 06:38:50;;;;;;;39.47;28.02;;;14.40;1.00;;;;;;5033639;28;20339;-63
2023/12/30 06:41:19;;;;;;;44.15;29.27;;;14.20;1.00;;;;;;5034597;28;20044;-63
2023/12/30 06:43:45;;;;;;;40.03;26.90;;;14.00;1.00;;;;;;5042790;28;20048;-62
2023/12/30 06:46:11;;;;;;;42.70;28.25;;;13.70;1.00;;;;;;5042889;28;20033;-63
2023/12/30 06:48:36;;;;;;;38.17;29.73;;;13.30;1.00;;;;;;5044625;28;20033;-63
2023/12/30 06:51:02;;;;;;;38.05;29.48;;;13.60;1.00;;;;;;5040119;28;20087;-63
2023/12/30 06:53:31;;;;;;;40.35;28.05;;;13.20;1.00;;;;;;5035893;28;20389;-63
2023/12/30 06:56:04;;;;;;;42.03;29.88;;;13.90;1.00;;;;;;5045890;28;20040;-63
2023/12/30 06:58:29;;;;;;;37.33;28.52;;;13.20;28.50;;;;;;5043827;28;20514;-64
2023/12/30 07:00:55;;;;;;;44.67;30.27;;;13.30;81.60;;;;;;5044793;28;20390;-62
2023/12/30 07:03:21;;;;;;;41.58;29.05;;;13.60;99.90;;;;;;5041554;28;20497;-63
2023/12/30 07:05:48;;;;;;;42.05;27.30;;;14.70;99.90;;;;;;5042615;28;20045;-64
2023/12/30 07:08:14;;;;;;;41.47;30.52;;;14.10;99.90;;;;;;5040977;28;20509;-63
2023/12/30 07:10:39;;;;;;;44.13;30.40;;;13.30;99.90;;;;;;5039944;28;20040;-63
2023/12/30 07:13:06;;;;;;;32.83;27.77;;;13.60;99.90;;;;;;5044241;28;20041;-62
2023/12/30 07:15:31;;;;;;;32.67;29.05;;;13.50;99.90;;;;;;5033489;28;20075;-63
2023/12/30 07:17:57;;;;;;;43.33;31.70;;;13.40;99.90;;;;;;5030993;28;20052;-65
2023/12/30 07:20:23;;;;;;;45.45;29.58;;;13.90;99.90;;;;;;5035234;28;20124;-64
2023/12/30 07:22:49;;;;;;;44.22;29.05;;;14.10;99.90;;;;;;5034244;28;20072;-63
2023/12/30 07:25:14;;;;;;;42.83;31.25;;;13.70;99.90;;;;;;5034996;28;20049;-66
2023/12/30 07:27:40;;;;;;;43.53;31.40;;;13.50;99.90;;;;;;5037150;28;20041;-66
2023/12/30 07:30:06;;;;;;;39.88;29.67;;;13.90;99.90;;;;;;5037577;28;20143;-65
2023/12/30 07:32:32;;;;;;;37.40;27.70;;;13.60;99.90;;;;;;5038740;28;20041;-63
2023/12/30 07:34:58;;;;;;;41.70;29.08;;;13.20;99.90;;;;;;5043188;28;20467;-63
2023/12/30 07:37:24;;;;;;;40.63;30.35;;;14.00;99.90;;;;;;5039398;28;20077;-62
2023/12/30 07:39:50;;;;;;;38.97;28.75;;;13.60;1.00;;;;;;5040939;28;20125;-63
2023/12/30 07:42:18;;;;;;;36.25;30.00;;;13.40;1.00;;;;;;5036907;28;20040;-63
2023/12/30 07:44:44;;;;;;;40.08;28.17;;;14.10;1.00;;;;;;5038911;28;20120;-62
2023/12/30 07:47:09;;;;;;;41.65;29.08;;;13.30;1.00;;;;;;5039042;28;20548;-64
2023/12/30 07:49:35;;;;;;;31.77;26.92;;;13.30;1.00;;;;;;5039394;28;20112;-63
2023/12/30 07:52:01;;;;;;;36.30;28.63;;;14.20;1.00;;;;;;5041875;28;20127;-62
2023/12/30 07:54:27;;;;;;;49.70;30.48;;;13.30;1.00;;;;;;5038667;28;20049;-62
2023/12/30 07:56:53;;;;;;;33.15;26.52;;;14.00;1.00;;;;;;5047948;28;20041;-63
2023/12/30 07:59:19;;;;;;;40.05;29.83;;;14.00;1.00;;;;;;5040254;28;20085;-63
2023/12/30 08:01:44;;;;;;;42.15;29.33;;;13.70;1.00;;;;;;5044012;28;20106;-64
2023/12/30 08:04:10;;;;;;;43.42;30.88;;;14.00;8.20;;;;;;5042044;28;20102;-63
2023/12/30 08:06:37;;;;;;;39.38;28.25;;;13.90;15.90;;;;;;5039931;28;20529;-63
2023/12/30 08:09:04;;;;;;;46.65;30.45;;;14.30;1.00;;;;;;5039731;28;20517;-62
2023/12/30 08:11:29;;;;;;;35.08;29.70;;;13.40;1.00;;;;;;5041162;28;20280;-64
2023/12/30 08:13:55;;;;;;;41.90;29.25;;;13.30;12.20;;;;;;5042375;28;20041;-63
2023/12/30 08:16:20;;;;;;;34.58;26.70;;;13.70;1.00;;;;;;5042354;28;20514;-63
2023/12/30 08:18:48;;;;;;;44.10;29.90;;;14.10;1.00;;;;;;5044724;28;20041;-63
2023/12/30 08:21:14;;;;;;;43.35;31.08;;;14.30;20.00;;;;;;5040008;28;20082;-63
2023/12/30 08:23:40;;;;;;;45.30;29.98;;;14.40;71.90;;;;;;5032717;28;20487;-63
2023/12/30 08:26:05;;;;;;;42.08;29.83;;;14.30;81.10;;;;;;5047428;28;20037;-63
2023/12/30 08:28:31;;;;;;;41.63;29.98;;;14.50;99.90;;;;;;5049098;28;20068;-62
2023/12/30 08:30:59;;;;;;;41.15;28.98;;;13.50;99.90;;;;;;5046090;28;20136;-62
2023/12/30 08:33:25;;;;;;;42.47;28.98;;;14.40;99.90;;;;;;5046850;28;20418;-63
2023/12/30 08:35:50;;;;;;;38.28;28.30;;;14.30;99.90;;;;;;5047059;28;20049;-63
2023/12/30 08:38:16;;;;;;;43.70;28.63;;;14.50;99.90;;;;;;5044215;28;20060;-63
2023/12/30 08:40:42;;;;;;;42.50;29.60;;;13.50;94.20;;;;;;5041363;28;20037;-63
2023/12/30 08:43:08;;;;;;;38.65;28.42;;;14.00;72.60;;;;;;5043677;28;20045;-62
2023/12/30 08:45:34;;;;;;;44.28;29.67;;;13.60;93.20;;;;;;5045040;28;20035;-64
2023/12/30 08:48:00;;;;;;;45.80;28.15;;;13.50;62.90;;;;;;5047299;28;20056;-61
2023/12/30 08:50:26;;;;;;;42.83;28.98;;;14.00;30.20;;;;;;5040619;28;20418;-62
2023/12/30 08:52:52;;;;;;;34.67;25.83;;;14.50;17.10;;;;;;5047251;28;20409;-63
2023/12/30 08:55:17;;;;;;;39.28;28.20;;;14.50;13.50;;;;;;5046390;28;20060;-62
2023/12/30 08:57:43;;;;;;;37.53;27.95;;;13.60;34.60;;;;;;5044617;28;20072;-63
2023/12/30 09:00:09;;;;;;;37.67;27.33;;;14.60;1.00;;;;;;5037579;28;20094;-65
2023/12/30 09:02:35;;;;;;;39.47;28.40;;;13.60;37.80;;;;;;5044475;28;20703;-63
2023/12/30 09:05:02;;;;;;;41.20;29.63;;;13.70;1.00;;;;;;5046865;28;20362;-63
2023/12/30 09:07:29;;;;;;;37.55;28.20;;;14.70;1.00;;;;;;5042820;28;20519;-63
2023/12/30 09:09:55;;;;;;;35.63;27.60;;;14.40;1.00;;;;;;5041371;28;20034;-62
2023/12/30 09:12:21;;;;;;;35.20;26.88;;;14.60;1.00;;;;;;5031334;28;20041;-62
2023/12/30 09:14:47;;;;;;;39.53;26.98;;;14.60;1.00;;;;;;5041286;28;20445;-63
2023/12/30 09:17:12;;;;;;;37.95;27.50;;;13.80;99.90;;;;;;5042674;28;20090;-63
2023/12/30 09:19:38;;;;;;;38.63;27.15;;;13.80;99.90;;;;;;5041729;28;20127;-63
2023/12/30 09:22:04;;;;;;;35.33;25.67;;;14.50;99.90;;;;;;5044278;28;20056;-63
2023/12/30 09:24:29;;;;;;;37.15;25.40;;;14.30;99.90;;;;;;5045954;28;20494;-62
2023/12/30 09:26:55;;;;;;;31.25;24.77;;;14.30;99.90;;;;;;5043420;28;20050;-63
2023/12/30 09:29:20;;;;;;;36.33;27.35;;;14.60;99.90;;;;;;5041662;28;20045;-64
2023/12/30 09:31:46;;;;;;;37.83;26.85;;;14.70;99.90;;;;;;5042717;28;20095;-63
2023/12/30 09:34:11;;;;;;;36.30;26.63;;;14.80;99.90;;;;;;5032358;28;20048;-65
2023/12/30 09:36:37;;;;;;;38.15;27.00;;;14.40;99.90;;;;;;5031522;28;20095;-62
2023/12/30 09:39:04;;;;;;;34.28;27.08;;;13.80;99.90;;;;;;5035183;28;20059;-63
2023/12/30 09:41:31;;;;;;;37.95;27.58;;;14.70;62.30;;;;;;5035720;28;20052;-65
2023/12/30 09:43:58;;;;;;;35.13;25.88;;;14.70;60.20;;;;;;5040061;28;20434;-63
2023/12/30 09:46:24;;;;;;;36.42;25.80;;;14.50;1.00;;;;;;5045058;28;20068;-64
2023/12/30 09:48:52;;;;;;;34.08;25.08;;;14.00;1.00;;;;;;5035304;28;20064;-65
2023/12/30 09:51:18;;;;;;;32.45;25.83;;;13.90;1.00;;;;;;5038850;28;20041;-63
2023/12/30 09:53:43;;;;;;;37.33;25.23;;;14.10;1.00;;;;;;5043974;28;20045;-65
2023/12/30 09:56:11;;;;;;;37.28;27.08;;;15.20;1.00;;;;;;5038109;28;20075;-64
2023/12/30 09:58:39;;;;;;;39.30;26.63;;;14.60;99.90;;;;;;5046894;28;20120;-64
2023/12/30 10:01:04;;;;;;;36.03;26.83;;;14.10;1.00;;;;;;5032620;28;20085;-65
2023/12/30 10:03:31;;;;;;;35.47;27.17;;;13.90;1.00;;;;;;5041902;28;20131;-64
2023/12/30 10:05:59;;;;;;;42.92;28.02;;;13.90;1.00;;;;;;5045704;28;20052;-65
2023/12/30 10:08:27;;;;;;;38.85;26.15;;;14.90;1.00;;;;;;5025501;28;20045;-63
2023/12/30 10:10:53;;;;;;;44.58;26.63;;;14.00;1.00;;;;;;5033664;28;20095;-64
2023/12/30 10:13:22;;;;;;;29.13;25.33;;;14.30;99.90;;;;;;5043917;28;20137;-63
2023/12/30 10:15:48;;;;;;;33.72;25.35;;;14.40;99.90;;;;;;5029917;28;20137;-64
2023/12/30 10:18:15;;;;;;;36.13;27.13;;;14.50;99.90;;;;;;5026142;28;20092;-63
2023/12/30 10:20:43;;;;;;;45.55;27.25;;;14.00;99.90;;;;;;5032193;28;20132;-65
2023/12/30 10:23:09;;;;;;;35.28;27.75;;;15.00;99.90;;;;;;5025592;28;20049;-63
2023/12/30 10:25:35;;;;;;;39.38;27.38;;;14.20;99.90;;;;;;5025422;28;20482;-65
2023/12/30 10:28:01;;;;;;;39.45;26.88;;;14.80;99.90;;;;;;5028409;28;20092;-63
2023/12/30 10:30:28;;;;;;;37.15;28.05;;;15.00;99.90;;;;;;5034431;28;20071;-63
2023/12/30 10:33:04;;;;;;;34.90;25.52;;;14.30;99.90;;;;;;5025584;28;20057;-63
2023/12/30 10:35:30;;;;;;;;;;;14.90;99.90;;;;;;5035191;28;20127;-64
2023/12/30 10:37:56;;;;;;;32.87;25.53;;;14.80;99.90;;;;;;5045610;28;20422;-64
2023/12/30 10:40:22;;;;;;;37.58;25.65;;;14.40;99.90;;;;;;5038109;28;20283;-65
2023/12/30 10:42:48;;;;;;;32.97;26.23;;;15.00;99.90;;;;;;5045320;28;20053;-64
2023/12/30 10:45:13;;;;;;;34.85;25.52;;;14.50;95.90;;;;;;5035339;28;20406;-66
2023/12/30 10:47:42;;;;;;;33.28;26.52;;;15.10;99.90;;;;;;5025396;28;20146;-64
2023/12/30 10:50:09;;;;;;;37.47;25.33;;;14.90;99.90;;;;;;5032374;28;20044;-64
2023/12/30 10:52:44;;;;;;;39.88;26.13;;;15.20;84.40;;;;;;5028143;28;20056;-64
2023/12/30 10:55:14;;;;;;;38.75;25.25;;;14.90;1.00;;;;;;5032264;28;20778;-62
2023/12/30 10:57:49;;;;;;;32.35;26.30;;;15.00;1.00;;;;;;5044934;28;20056;-64
2023/12/30 11:00:20;;;;;;;32.70;27.10;;;14.70;12.90;;;;;;5038939;28;20088;-64
2023/12/30 11:02:47;;;;;;;30.42;24.90;;;14.10;51.60;;;;;;5043256;28;20523;-64
2023/12/30 11:05:22;;;;;;;33.33;26.83;;;14.40;28.10;;;;;;5033852;28;20051;-64
2023/12/30 11:07:48;;;;;;;31.30;26.30;;;15.10;46.60;;;;;;5031883;28;20037;-64
2023/12/30 11:10:21;;;;;;;33.42;25.48;;;14.60;55.80;;;;;;5039846;28;20028;-63
2023/12/30 11:12:46;;;;;;;35.65;27.23;;;14.60;1.00;;;;;;5044726;28;20055;-64
2023/12/30 11:15:28;;;;;;;34.47;26.70;;;15.30;45.50;;;;;;5041962;28;20041;-63
2023/12/30 11:17:56;;;;;;;34.80;27.00;;;14.60;79.10;;;;;;5008394;28;20064;-65
2023/12/30 11:20:33;;;;;;;37.53;26.73;;;14.40;99.90;;;;;;5032759;28;20041;-65
2023/12/30 11:23:03;;;;;;;37.38;27.48;;;14.60;95.70;;;;;;5041375;28;20050;-63
2023/12/30 11:25:34;;;;;;;38.75;27.67;;;15.40;99.90;;;;;;5026372;28;20137;-63
2023/12/30 11:28:20;;;;;;;41.88;28.30;;;15.00;99.90;;;;;;5024815;28;20049;-63
2023/12/30 11:30:56;;;;;;;40.70;29.45;;;15.40;99.90;;;;;;5031169;28;20096;-62
2023/12/30 11:33:22;;;;;;;41.08;29.38;;;15.40;1.00;;;;;;5029080;28;20056;-63
2023/12/30 11:35:51;;;;;;;42.78;29.80;;;15.40;1.00;;;;;;5029291;28;20050;-64
2023/12/30 11:38:18;;;;;;;41.80;29.88;;;14.90;1.00;;;;;;5028747;28;20045;-63
2023/12/30 11:40:52;;;;;;;38.08;28.95;;;14.70;1.00;;;;;;5038782;28;20102;-64
2023/12/30 11:43:22;;;;;;;41.28;29.25;;;14.80;1.00;;;;;;5035436;28;20047;-63
2023/12/30 11:45:48;;;;;;;42.70;30.23;;;14.70;1.00;;;;;;5029766;28;20049;-63
2023/12/30 11:48:14;;;;;;;42.35;30.27;;;14.10;1.00;;;;;;5030961;28;20041;-64
2023/12/30 11:50:41;;;;;;;39.90;31.20;;;14.60;9.40;;;;;;5030755;28;20523;-62
2023/12/30 11:53:07;;;;;;;40.05;31.30;;;15.00;99.90;;;;;;5030992;28;20483;-63
2023/12/30 11:55:32;;;;;;;43.25;30.20;;;14.50;1.00;;;;;;5043940;28;20087;-64
2023/12/30 11:57:58;;;;;;;42.42;31.15;;;15.40;1.00;;;;;;5048375;28;20072;-62
2023/12/30 12:00:27;;;;;;;42.15;31.63;;;14.80;99.90;;;;;;5046547;28;20522;-65
2023/12/30 12:02:54;;;;;;;44.35;30.90;;;15.00;99.90;;;;;;5048193;28;20064;-63
2023/12/30 12:05:20;;;;;;;42.60;31.67;;;15.50;99.90;;;;;;5033930;28;20041;-64
2023/12/30 12:07:46;;;;;;;40.55;30.55;;;15.40;1.00;;;;;;5030943;28;20051;-64
2023/12/30 12:10:11;;;;;;;39.92;29.33;;;14.50;1.00;;;;;;5032518;28;20578;-64
2023/12/30 12:12:42;;;;;;;36.88;29.10;;;15.60;42.30;;;;;;5049593;28;20037;-63
2023/12/30 12:15:08;;;;;;;40.60;28.45;;;14.80;99.90;;;;;;5049918;28;20141;-62
2023/12/30 12:17:37;;;;;;;41.08;28.83;;;15.70;99.90;;;;;;5037615;28;20050;-62
2023/12/30 12:20:07;;;;;;;36.80;28.35;;;15.40;99.90;;;;;;5042598;28;20039;-64
2023/12/30 12:22:33;;;;;;;34.42;28.63;;;15.10;99.90;;;;;;5028627;28;20128;-66
2023/12/30 12:25:01;;;;;;;36.03;27.38;;;14.70;99.90;;;;;;5039825;28;20149;-63
2023/12/30 12:27:27;;;;;;;41.75;27.67;;;15.60;99.90;;;;;;5049934;28;20091;-64